Time;durP1;ratioP1;P1;durP2;ratioP2;P2;SDS_P1;SDS_P2;PMS_P1;PMS_P2;Temp;Humidity;BMP_temperature;BMP_pressure;BME280_temperature;BME280_humidity;BME280_pressure;Samples;Min_cycle;Max_cycle;Signal;HPM_P1;HPM_P2
2024/02/17 00:02:04;;;;;;;3.97;2.85;;;22.90;59.40;;;;;;6119401;22;94121;-58
2024/02/17 00:04:30;;;;;;;4.45;3.08;;;22.90;59.50;;;;;;6148548;22;93353;-57
2024/02/17 00:06:55;;;;;;;3.33;2.80;;;22.90;59.50;;;;;;6146960;22;93381;-56
2024/02/17 00:09:21;;;;;;;4.15;2.60;;;22.90;59.50;;;;;;6143906;22;93256;-55
2024/02/17 00:11:48;;;;;;;3.72;2.70;;;22.80;59.50;;;;;;6120982;22;93905;-57
2024/02/17 00:14:14;;;;;;;3.83;2.80;;;22.80;59.50;;;;;;6148560;22;93993;-57
2024/02/17 00:16:41;;;;;;;3.92;2.53;;;22.80;59.50;;;;;;6148917;22;92260;-57
2024/02/17 00:19:07;;;;;;;4.20;2.70;;;22.80;59.50;;;;;;6121956;22;92088;-56
2024/02/17 00:21:33;;;;;;;3.85;2.53;;;22.80;59.50;;;;;;6148849;22;93007;-57
2024/02/17 00:23:59;;;;;;;4.38;2.40;;;22.80;59.50;;;;;;6148348;22;92579;-55
2024/02/17 00:26:25;;;;;;;3.80;3.03;;;22.70;59.40;;;;;;6148876;22;92583;-56
2024/02/17 00:28:53;;;;;;;4.13;1.95;;;22.70;59.40;;;;;;6122030;22;92369;-58
2024/02/17 00:31:19;;;;;;;3.57;2.53;;;22.70;59.50;;;;;;6147253;22;93976;-58
2024/02/17 00:33:45;;;;;;;3.55;2.45;;;22.70;59.60;;;;;;6121049;22;93784;-56
2024/02/17 00:36:11;;;;;;;3.97;2.55;;;22.60;59.60;;;;;;6149154;22;92177;-56
2024/02/17 00:38:36;;;;;;;3.25;2.40;;;22.60;59.60;;;;;;6115779;22;92514;-57
2024/02/17 00:41:06;;;;;;;3.08;2.50;;;22.60;59.50;;;;;;6121605;22;93348;-57
2024/02/17 00:43:33;;;;;;;3.20;2.50;;;22.60;59.60;;;;;;6149550;22;92660;-58
2024/02/17 00:45:59;;;;;;;4.28;2.70;;;22.60;59.70;;;;;;6121845;22;91913;-57
2024/02/17 00:48:26;;;;;;;3.90;2.63;;;22.60;59.50;;;;;;6141857;22;91514;-57
2024/02/17 00:50:52;;;;;;;3.70;3.05;;;22.60;59.40;;;;;;6147735;22;93486;-58
2024/02/17 00:53:18;;;;;;;5.55;2.60;;;22.60;59.60;;;;;;6116401;22;93931;-53
2024/02/17 00:55:43;;;;;;;3.50;2.95;;;22.50;59.60;;;;;;6150157;22;93192;-56
2024/02/17 00:58:09;;;;;;;4.53;2.58;;;22.50;59.60;;;;;;6148950;22;92362;-56
2024/02/17 01:00:36;;;;;;;2.97;2.50;;;22.50;59.70;;;;;;6149324;22;93063;-55
2024/02/17 01:03:03;;;;;;;2.58;2.20;;;22.50;59.60;;;;;;6148551;22;98342;-55
2024/02/17 01:05:28;;;;;;;3.10;2.55;;;22.50;59.60;;;;;;6122012;22;92440;-58
2024/02/17 01:07:54;;;;;;;5.15;2.92;;;22.40;59.60;;;;;;6149294;22;92244;-56
2024/02/17 01:10:21;;;;;;;3.65;2.88;;;22.40;59.60;;;;;;6143429;22;93526;-56
2024/02/17 01:12:47;;;;;;;4.53;3.00;;;22.40;59.50;;;;;;6095280;22;92889;-53
2024/02/17 01:15:13;;;;;;;3.58;2.50;;;22.40;59.70;;;;;;6120061;22;92366;-58
2024/02/17 01:17:39;;;;;;;2.70;2.08;;;22.40;59.60;;;;;;6147624;22;92213;-58
2024/02/17 01:20:06;;;;;;;3.50;2.83;;;22.40;59.60;;;;;;6145035;22;94405;-57
2024/02/17 01:22:31;;;;;;;3.13;2.15;;;22.40;59.50;;;;;;6147386;22;93700;-56
2024/02/17 01:24:58;;;;;;;4.57;2.60;;;22.40;59.70;;;;;;6147420;22;93170;-57
2024/02/17 01:27:24;;;;;;;5.15;2.60;;;22.40;59.60;;;;;;6121926;22;93038;-57
2024/02/17 01:29:49;;;;;;;3.28;2.50;;;22.30;59.70;;;;;;6142495;22;93148;-58
2024/02/17 01:32:16;;;;;;;3.53;2.13;;;22.30;59.60;;;;;;6144086;22;93317;-56
2024/02/17 01:34:42;;;;;;;2.78;2.40;;;22.30;59.60;;;;;;6150254;22;92231;-57
2024/02/17 01:37:07;;;;;;;3.67;2.38;;;22.30;59.60;;;;;;6122231;22;91893;-58
2024/02/17 01:39:33;;;;;;;3.88;2.72;;;22.30;59.70;;;;;;6148117;22;93119;-57
2024/02/17 01:42:00;;;;;;;4.65;2.30;;;22.30;59.60;;;;;;6143675;22;92365;-56
2024/02/17 01:44:27;;;;;;;3.15;2.13;;;22.20;59.60;;;;;;6121224;22;92907;-56
2024/02/17 01:46:53;;;;;;;3.20;2.42;;;22.20;59.70;;;;;;6148175;22;92218;-57
2024/02/17 01:49:20;;;;;;;4.15;2.83;;;22.20;59.70;;;;;;6146614;22;92185;-57
2024/02/17 01:51:46;;;;;;;3.78;2.33;;;22.20;59.70;;;;;;6147054;22;92576;-53
2024/02/17 01:54:13;;;;;;;2.78;2.28;;;22.20;59.70;;;;;;6119856;22;92460;-56
2024/02/17 01:56:42;;;;;;;2.65;2.00;;;22.20;59.70;;;;;;6121237;22;92759;-57
2024/02/17 01:59:09;;;;;;;3.92;2.25;;;22.20;59.70;;;;;;6146872;22;93076;-54
2024/02/17 02:01:35;;;;;;;5.65;2.70;;;22.20;59.70;;;;;;6122236;22;93015;-56
2024/02/17 02:04:01;;;;;;;2.85;2.55;;;22.20;59.70;;;;;;6147265;22;92137;-56
2024/02/17 02:06:29;;;;;;;3.42;2.50;;;22.10;59.70;;;;;;6149344;22;92006;-57
2024/02/17 02:08:56;;;;;;;3.60;2.53;;;22.20;59.70;;;;;;6146526;22;94410;-57
2024/02/17 02:11:22;;;;;;;3.97;2.97;;;22.10;59.80;;;;;;6141939;22;93601;-58
2024/02/17 02:13:48;;;;;;;3.90;2.13;;;22.10;59.70;;;;;;6148242;22;92202;-53
2024/02/17 02:16:16;;;;;;;3.42;2.40;;;22.10;59.70;;;;;;6142075;22;91964;-56
2024/02/17 02:18:41;;;;;;;2.95;2.10;;;22.10;59.80;;;;;;6137323;22;92927;-56
2024/02/17 02:21:08;;;;;;;3.53;2.08;;;22.10;59.70;;;;;;6147252;22;93216;-56
2024/02/17 02:23:35;;;;;;;4.00;2.78;;;22.10;59.80;;;;;;6122368;22;92354;-56
2024/02/17 02:26:01;;;;;;;3.15;2.42;;;22.10;59.80;;;;;;6121478;22;91778;-56
2024/02/17 02:28:27;;;;;;;3.20;2.03;;;22.10;59.80;;;;;;6148265;22;93115;-53
2024/02/17 02:30:56;;;;;;;3.97;2.42;;;22.10;59.80;;;;;;6118950;22;93495;-57
2024/02/17 02:33:21;;;;;;;3.35;2.63;;;22.10;59.70;;;;;;6146799;22;93115;-54
2024/02/17 02:35:47;;;;;;;3.60;2.00;;;22.00;59.60;;;;;;6118393;22;93002;-56
2024/02/17 02:38:13;;;;;;;2.55;1.98;;;22.00;59.80;;;;;;6147819;22;93139;-57
2024/02/17 02:40:39;;;;;;;2.53;2.00;;;22.00;59.70;;;;;;6120055;22;93267;-54
2024/02/17 02:43:05;;;;;;;3.65;2.50;;;22.00;59.70;;;;;;6147713;22;92197;-58
2024/02/17 02:45:33;;;;;;;2.95;2.20;;;22.00;59.80;;;;;;6146818;22;92427;-57
2024/02/17 02:47:59;;;;;;;2.50;1.90;;;22.00;59.60;;;;;;6147203;22;93123;-57
2024/02/17 02:50:24;;;;;;;2.88;2.00;;;22.00;59.70;;;;;;6147353;22;92780;-55
2024/02/17 02:52:50;;;;;;;3.08;2.08;;;22.00;59.80;;;;;;6147453;22;91975;-56
2024/02/17 02:55:16;;;;;;;3.60;2.17;;;21.90;59.70;;;;;;6140378;22;92438;-56
2024/02/17 02:57:43;;;;;;;2.45;1.83;;;21.90;59.60;;;;;;6146976;22;94033;-55
2024/02/17 03:00:09;;;;;;;3.45;2.33;;;21.90;59.60;;;;;;6148184;22;93157;-56
2024/02/17 03:02:34;;;;;;;3.58;2.25;;;21.90;59.60;;;;;;6147887;22;92037;-56
2024/02/17 03:05:00;;;;;;;2.72;2.08;;;21.90;59.70;;;;;;6147135;22;92373;-56
2024/02/17 03:07:27;;;;;;;3.05;1.90;;;21.90;59.50;;;;;;6120974;22;95424;-56
2024/02/17 03:09:53;;;;;;;3.05;1.77;;;21.90;59.80;;;;;;6146141;22;92882;-56
2024/02/17 03:12:19;;;;;;;2.88;1.95;;;21.90;59.60;;;;;;6138746;22;92229;-57
2024/02/17 03:14:45;;;;;;;3.05;2.22;;;21.90;59.60;;;;;;6121178;22;91533;-58
2024/02/17 03:17:11;;;;;;;3.08;2.05;;;21.90;59.60;;;;;;6148375;22;93179;-54
2024/02/17 03:19:37;;;;;;;3.58;2.45;;;21.90;59.60;;;;;;6121355;22;93323;-58
2024/02/17 03:22:04;;;;;;;2.88;1.88;;;21.90;59.40;;;;;;6120165;22;93290;-57
2024/02/17 03:24:29;;;;;;;3.55;2.17;;;21.80;59.70;;;;;;6147821;22;92196;-56
2024/02/17 03:26:55;;;;;;;2.55;2.03;;;21.90;59.70;;;;;;6140825;22;93203;-57
2024/02/17 03:29:21;;;;;;;4.35;2.22;;;21.80;59.60;;;;;;6140127;22;93115;-58
2024/02/17 03:31:47;;;;;;;3.80;2.15;;;21.80;59.60;;;;;;6120403;22;92424;-56
2024/02/17 03:34:13;;;;;;;2.15;1.80;;;21.80;59.70;;;;;;6106801;22;92476;-57
2024/02/17 03:36:39;;;;;;;2.63;2.10;;;21.80;59.60;;;;;;6121055;22;93148;-57
2024/02/17 03:39:08;;;;;;;3.20;1.90;;;21.80;59.70;;;;;;6145938;22;93476;-57
2024/02/17 03:41:35;;;;;;;2.92;1.92;;;21.80;59.50;;;;;;6120968;22;92364;-57
2024/02/17 03:44:02;;;;;;;2.60;1.92;;;21.80;59.50;;;;;;6146760;22;91916;-57
2024/02/17 03:46:30;;;;;;;3.03;2.20;;;21.80;59.60;;;;;;6146391;22;94474;-57
2024/02/17 03:48:56;;;;;;;3.65;1.80;;;21.80;59.50;;;;;;6121377;22;94108;-53
2024/02/17 03:51:22;;;;;;;2.00;1.80;;;21.70;59.40;;;;;;6149717;22;92471;-54
2024/02/17 03:53:47;;;;;;;2.95;1.85;;;21.70;59.40;;;;;;6121950;22;92716;-56
2024/02/17 03:56:17;;;;;;;1.95;1.75;;;21.80;59.40;;;;;;6122042;22;94033;-57
2024/02/17 03:58:43;;;;;;;4.38;2.20;;;21.80;59.50;;;;;;6122186;22;93797;-57
2024/02/17 04:01:09;;;;;;;2.95;1.90;;;21.70;59.30;;;;;;6148614;22;91857;-57
2024/02/17 04:03:34;;;;;;;1.90;1.70;;;21.70;59.40;;;;;;6149167;22;91580;-57
2024/02/17 04:06:00;;;;;;;3.72;2.05;;;21.70;59.30;;;;;;6149080;22;92851;-55
2024/02/17 04:08:26;;;;;;;2.10;1.75;;;21.70;59.40;;;;;;6143743;22;93183;-56
2024/02/17 04:10:52;;;;;;;2.45;2.20;;;21.70;59.30;;;;;;6121921;22;93134;-53
2024/02/17 04:13:18;;;;;;;2.22;1.90;;;21.70;59.20;;;;;;6121399;22;92875;-57
2024/02/17 04:15:44;;;;;;;3.33;2.30;;;21.70;59.30;;;;;;6148737;22;92633;-52
2024/02/17 04:18:09;;;;;;;2.58;2.28;;;21.70;59.30;;;;;;6146936;22;92748;-56
2024/02/17 04:20:39;;;;;;;2.45;1.90;;;21.60;59.30;;;;;;6120218;22;92599;-57
2024/02/17 04:23:06;;;;;;;1.98;1.70;;;21.70;59.40;;;;;;6144962;22;92006;-57
2024/02/17 04:25:33;;;;;;;2.88;1.90;;;21.60;59.20;;;;;;6123012;22;93600;-56
2024/02/17 04:28:02;;;;;;;2.63;2.03;;;21.60;59.30;;;;;;6117765;22;92391;-55
2024/02/17 04:30:29;;;;;;;2.67;1.90;;;21.60;59.30;;;;;;6134381;22;92181;-55
2024/02/17 04:33:00;;;;;;;;;;;21.60;59.30;;;;;;6121521;22;92844;-57
2024/02/17 04:35:27;;;;;;;2.30;2.03;;;21.60;59.40;;;;;;6121655;22;94087;-54
2024/02/17 04:37:56;;;;;;;2.33;1.65;;;21.60;59.10;;;;;;6120852;22;93787;-57
2024/02/17 04:40:22;;;;;;;2.50;1.85;;;21.60;59.10;;;;;;6116680;22;92481;-55
2024/02/17 04:42:48;;;;;;;2.42;1.83;;;21.60;59.20;;;;;;6148417;22;92177;-58
2024/02/17 04:45:14;;;;;;;1.80;1.70;;;21.60;59.30;;;;;;6145744;22;93074;-56
2024/02/17 04:47:39;;;;;;;2.70;1.83;;;21.60;59.30;;;;;;6146213;22;93248;-55
2024/02/17 04:50:05;;;;;;;2.25;1.70;;;21.60;59.20;;;;;;6150391;22;92224;-57
2024/02/17 04:52:32;;;;;;;4.05;2.17;;;21.60;59.10;;;;;;6152261;22;91729;-56
2024/02/17 04:54:58;;;;;;;2.03;1.60;;;21.60;59.20;;;;;;6120471;22;93448;-56
2024/02/17 04:57:24;;;;;;;2.50;1.70;;;21.60;59.40;;;;;;6145920;22;92307;-57
2024/02/17 04:59:50;;;;;;;3.30;1.80;;;21.60;59.30;;;;;;6146625;22;93080;-58
2024/02/17 05:02:15;;;;;;;1.98;1.67;;;21.60;59.30;;;;;;6115273;22;92039;-56
2024/02/17 05:04:41;;;;;;;2.17;1.88;;;21.50;59.30;;;;;;6120784;22;93682;-57
2024/02/17 05:07:07;;;;;;;2.65;1.92;;;21.50;59.20;;;;;;6146499;22;92754;-57
2024/02/17 05:09:34;;;;;;;2.50;1.83;;;21.50;59.20;;;;;;6150120;22;92916;-55
2024/02/17 05:12:00;;;;;;;2.60;2.00;;;21.50;59.20;;;;;;6121871;22;92221;-56
2024/02/17 05:14:27;;;;;;;2.10;1.90;;;21.50;59.20;;;;;;6147242;22;92913;-58
2024/02/17 05:16:52;;;;;;;2.47;2.20;;;21.50;59.30;;;;;;6145873;22;93139;-57
2024/02/17 05:19:20;;;;;;;2.70;1.50;;;21.50;59.90;;;;;;6120495;22;91980;-58
2024/02/17 05:21:45;;;;;;;2.45;1.85;;;21.50;59.40;;;;;;6121609;22;92526;-56
2024/02/17 05:24:11;;;;;;;3.65;2.42;;;21.50;59.10;;;;;;6148231;22;94080;-56
2024/02/17 05:26:39;;;;;;;2.72;1.90;;;21.50;59.20;;;;;;6148788;22;93646;-55
2024/02/17 05:29:08;;;;;;;1.38;1.25;;;21.50;59.20;;;;;;6122103;22;92554;-57
2024/02/17 05:31:35;;;;;;;2.58;1.70;;;21.50;59.30;;;;;;6149966;22;92025;-56
2024/02/17 05:34:01;;;;;;;1.90;1.50;;;21.40;59.40;;;;;;6148761;22;93042;-56
2024/02/17 05:36:27;;;;;;;2.33;2.10;;;21.50;59.20;;;;;;6147840;22;92273;-56
2024/02/17 05:38:53;;;;;;;2.10;1.85;;;21.50;59.20;;;;;;6121365;22;92659;-56
2024/02/17 05:41:19;;;;;;;1.52;1.42;;;21.50;59.20;;;;;;6121088;22;91646;-55
2024/02/17 05:43:45;;;;;;;2.50;1.75;;;21.50;59.30;;;;;;6147319;22;93565;-56
2024/02/17 05:46:11;;;;;;;2.65;1.77;;;21.40;59.10;;;;;;6120066;22;93812;-58
2024/02/17 05:48:37;;;;;;;1.42;1.33;;;21.40;59.10;;;;;;6148212;22;93175;-57
2024/02/17 05:51:03;;;;;;;2.28;1.45;;;21.40;59.10;;;;;;6122393;22;92493;-56
2024/02/17 05:53:29;;;;;;;2.75;1.98;;;21.40;59.20;;;;;;6114826;22;92873;-57
2024/02/17 05:55:56;;;;;;;1.92;1.70;;;21.40;59.10;;;;;;6149062;22;93227;-54
2024/02/17 05:58:22;;;;;;;2.78;1.95;;;21.40;59.10;;;;;;6118742;22;92565;-57
2024/02/17 06:00:48;;;;;;;2.72;1.70;;;21.40;59.20;;;;;;6145356;22;92318;-57
2024/02/17 06:03:15;;;;;;;2.95;1.73;;;21.40;59.10;;;;;;6146630;22;93236;-55
2024/02/17 06:05:41;;;;;;;2.95;1.95;;;21.40;59.20;;;;;;6146979;22;92622;-57
2024/02/17 06:08:06;;;;;;;2.28;1.70;;;21.40;59.30;;;;;;6121116;22;92346;-56
2024/02/17 06:10:32;;;;;;;2.22;1.50;;;21.30;59.20;;;;;;6149244;22;92613;-57
2024/02/17 06:12:58;;;;;;;1.55;1.45;;;21.40;59.30;;;;;;6146740;22;93885;-56
2024/02/17 06:15:24;;;;;;;3.03;1.65;;;21.30;59.10;;;;;;6071759;22;94103;-55
2024/02/17 06:21:10;;;;;;;1.65;1.50;;;21.30;59.10;;;;;;6121802;22;92199;-55
2024/02/17 06:23:23;;;;;;;1.92;1.70;;;21.30;59.10;;;;;;6145366;22;92152;-57
2024/02/17 06:25:49;;;;;;;1.70;1.52;;;21.30;59.20;;;;;;6121666;22;93272;-57
2024/02/17 06:28:15;;;;;;;1.88;1.40;;;21.30;59.30;;;;;;6122082;22;91944;-55
2024/02/17 06:30:40;;;;;;;2.03;1.48;;;21.30;59.20;;;;;;6149679;22;91367;-56
2024/02/17 06:33:06;;;;;;;2.63;1.70;;;21.30;59.10;;;;;;6121685;22;93596;-56
2024/02/17 06:35:32;;;;;;;2.30;1.80;;;21.30;59.10;;;;;;6148153;22;92764;-57
2024/02/17 06:37:58;;;;;;;2.72;1.77;;;21.30;58.90;;;;;;6147935;22;93319;-57
2024/02/17 06:40:24;;;;;;;2.20;1.38;;;21.30;59.00;;;;;;6120503;22;92088;-57
2024/02/17 06:42:50;;;;;;;1.75;1.52;;;21.30;58.80;;;;;;6147979;22;93131;-57
2024/02/17 06:45:17;;;;;;;1.45;1.33;;;21.30;58.90;;;;;;6096003;22;92594;-57
2024/02/17 06:47:46;;;;;;;2.35;1.42;;;21.30;58.90;;;;;;6147220;22;92268;-57
2024/02/17 06:50:12;;;;;;;2.22;1.25;;;21.30;58.80;;;;;;6149209;22;92355;-57
2024/02/17 06:52:39;;;;;;;2.20;1.63;;;21.30;59.20;;;;;;6148038;22;94102;-58
2024/02/17 06:55:05;;;;;;;5.47;3.58;;;21.30;59.70;;;;;;6121819;22;94833;-56
2024/02/17 06:57:31;;;;;;;5.38;4.22;;;21.30;60.00;;;;;;6147800;22;92155;-57
2024/02/17 06:59:56;;;;;;;5.60;3.78;;;21.30;59.80;;;;;;6147159;22;92848;-55
2024/02/17 07:02:23;;;;;;;5.03;3.60;;;21.30;59.80;;;;;;6119417;22;95226;-55
2024/02/17 07:04:52;;;;;;;4.10;2.85;;;21.30;59.60;;;;;;6146917;22;94203;-57
2024/02/17 07:07:18;;;;;;;4.38;3.30;;;21.30;59.70;;;;;;6147699;22;92301;-61
2024/02/17 07:09:45;;;;;;;5.35;3.90;;;21.30;59.60;;;;;;6120565;22;92398;-56
2024/02/17 07:12:11;;;;;;;5.18;3.10;;;21.30;59.70;;;;;;6148219;22;93257;-59
2024/02/17 07:14:38;;;;;;;4.25;3.40;;;21.30;59.20;;;;;;6120250;22;95400;-57
2024/02/17 07:17:07;;;;;;;5.85;4.15;;;21.30;59.30;;;;;;6121099;22;92449;-58
2024/02/17 07:19:33;;;;;;;5.97;3.47;;;21.40;59.50;;;;;;6148293;22;91608;-59
2024/02/17 07:21:58;;;;;;;5.28;3.00;;;21.40;59.50;;;;;;6119977;22;93501;-56
2024/02/17 07:24:24;;;;;;;3.70;2.75;;;21.50;59.80;;;;;;6120269;22;93786;-58
2024/02/17 07:26:52;;;;;;;5.10;3.22;;;21.60;59.60;;;;;;6145494;22;92840;-56
2024/02/17 07:29:18;;;;;;;5.25;2.90;;;21.60;59.70;;;;;;6146265;22;92477;-57
2024/02/17 07:31:44;;;;;;;3.28;2.40;;;21.70;59.50;;;;;;6120397;22;94177;-59
2024/02/17 07:34:15;;;;;;;3.75;2.70;;;21.80;59.50;;;;;;6146588;22;92682;-57
2024/02/17 07:36:41;;;;;;;3.65;2.72;;;21.80;59.50;;;;;;6147002;22;92209;-58
2024/02/17 07:39:10;;;;;;;4.13;2.72;;;21.80;59.50;;;;;;6120173;22;92495;-58
2024/02/17 07:41:36;;;;;;;4.22;2.75;;;21.90;59.70;;;;;;6113070;22;93414;-58
2024/02/17 07:44:02;;;;;;;4.65;2.95;;;21.90;59.30;;;;;;6146023;22;92485;-59
2024/02/17 07:46:29;;;;;;;5.68;3.20;;;21.90;59.50;;;;;;6118106;22;92385;-59
2024/02/17 07:48:54;;;;;;;6.28;2.72;;;21.90;59.10;;;;;;6118576;22;92337;-58
2024/02/17 07:51:20;;;;;;;5.40;2.60;;;22.00;59.10;;;;;;6146159;22;93566;-59
2024/02/17 07:53:45;;;;;;;3.83;2.58;;;22.00;59.10;;;;;;6147140;22;92840;-56
2024/02/17 07:56:11;;;;;;;4.85;2.45;;;22.10;59.00;;;;;;6147900;22;92357;-58
2024/02/17 07:58:37;;;;;;;3.90;2.45;;;22.10;59.00;;;;;;6148624;22;91909;-58
2024/02/17 08:01:03;;;;;;;5.15;2.60;;;22.10;58.90;;;;;;6145328;22;93116;-58
2024/02/17 08:03:30;;;;;;;6.15;2.60;;;22.10;58.90;;;;;;6147431;22;92719;-58
2024/02/17 08:05:55;;;;;;;7.57;2.95;;;22.20;58.50;;;;;;6145755;22;93545;-59
2024/02/17 08:08:21;;;;;;;6.25;2.42;;;22.20;58.30;;;;;;6146790;22;91275;-58
2024/02/17 08:10:47;;;;;;;4.65;2.67;;;22.30;58.30;;;;;;6119589;22;93107;-58
2024/02/17 08:13:13;;;;;;;4.90;2.55;;;22.30;58.30;;;;;;6147142;22;92220;-57
2024/02/17 08:15:39;;;;;;;7.97;3.10;;;22.40;58.50;;;;;;6120190;22;93223;-59
2024/02/17 08:18:06;;;;;;;4.30;2.53;;;22.40;58.40;;;;;;6147910;22;92307;-57
2024/02/17 08:20:32;;;;;;;4.90;2.80;;;22.40;58.50;;;;;;6120403;22;93703;-59
2024/02/17 08:22:59;;;;;;;6.40;3.13;;;22.40;58.80;;;;;;6147501;22;92800;-59
2024/02/17 08:25:28;;;;;;;8.40;3.80;;;22.40;59.00;;;;;;6120458;22;92346;-58
2024/02/17 08:27:55;;;;;;;12.10;3.97;;;22.40;58.70;;;;;;6142881;22;92311;-58
2024/02/17 08:30:22;;;;;;;6.18;3.10;;;22.40;59.10;;;;;;6114391;22;92661;-59
2024/02/17 08:32:47;;;;;;;10.57;4.55;;;22.50;59.20;;;;;;6148729;22;92424;-58
2024/02/17 08:35:14;;;;;;;9.07;3.92;;;22.50;59.90;;;;;;6147482;22;92530;-59
2024/02/17 08:37:40;;;;;;;6.00;3.47;;;22.50;60.10;;;;;;6121980;22;92185;-60
2024/02/17 08:40:06;;;;;;;8.38;3.67;;;22.50;60.20;;;;;;6146814;22;93649;-58
2024/02/17 08:42:33;;;;;;;8.35;3.80;;;22.60;60.20;;;;;;6146815;22;92514;-59
2024/02/17 08:44:59;;;;;;;8.05;3.40;;;22.60;60.20;;;;;;6120514;22;92204;-57
2024/02/17 08:47:25;;;;;;;6.45;3.75;;;22.60;59.90;;;;;;6121139;22;92388;-58
2024/02/17 08:49:52;;;;;;;7.20;3.25;;;22.60;59.30;;;;;;6149051;22;92622;-59
2024/02/17 08:52:18;;;;;;;12.00;4.55;;;22.70;59.10;;;;;;6120315;22;93168;-60
2024/02/17 08:54:43;;;;;;;23.35;7.55;;;22.70;58.70;;;;;;6147433;22;92390;-59
2024/02/17 08:57:10;;;;;;;27.77;7.97;;;22.80;58.30;;;;;;6148162;22;91786;-59
2024/02/17 08:59:37;;;;;;;29.38;10.30;;;22.80;58.40;;;;;;6148289;22;92539;-59
2024/02/17 09:02:03;;;;;;;29.00;9.02;;;22.80;58.50;;;;;;6147548;22;92722;-59
2024/02/17 09:04:28;;;;;;;18.50;6.45;;;22.80;58.00;;;;;;6148677;22;93132;-61
2024/02/17 09:06:55;;;;;;;17.27;7.47;;;22.80;56.80;;;;;;6148158;22;92273;-59
2024/02/17 09:09:20;;;;;;;22.80;7.00;;;22.90;56.40;;;;;;6146967;22;93143;-60
2024/02/17 09:11:46;;;;;;;26.63;6.47;;;22.90;55.50;;;;;;6114433;22;93639;-59
2024/02/17 09:14:12;;;;;;;20.33;5.57;;;22.90;56.00;;;;;;6144878;22;92261;-58
2024/02/17 09:16:38;;;;;;;21.58;7.55;;;22.90;55.70;;;;;;6147609;22;91959;-59
2024/02/17 09:19:04;;;;;;;15.52;6.05;;;22.90;55.40;;;;;;6120332;22;93172;-59
2024/02/17 09:21:30;;;;;;;15.23;5.22;;;23.00;55.50;;;;;;6148639;22;92258;-58
2024/02/17 09:23:56;;;;;;;18.40;5.88;;;23.00;55.60;;;;;;6121641;22;92108;-59
2024/02/17 09:26:23;;;;;;;15.85;5.97;;;23.00;55.40;;;;;;6148305;22;92496;-58
2024/02/17 09:28:49;;;;;;;13.05;4.70;;;23.00;55.20;;;;;;6147712;22;94008;-59
2024/02/17 09:31:16;;;;;;;19.40;5.63;;;23.00;55.40;;;;;;6147871;22;93136;-59
2024/02/17 09:33:43;;;;;;;18.55;5.20;;;23.10;55.10;;;;;;6122162;22;92253;-60
2024/02/17 09:36:09;;;;;;;14.43;4.80;;;23.10;55.20;;;;;;6121290;22;92664;-59
2024/02/17 09:38:34;;;;;;;22.10;6.10;;;23.10;55.20;;;;;;6147104;22;93055;-59
2024/02/17 09:41:00;;;;;;;20.23;6.72;;;23.20;55.30;;;;;;6145223;22;93218;-58
2024/02/17 09:43:26;;;;;;;17.83;5.70;;;23.20;55.40;;;;;;6146467;22;92302;-60
2024/02/17 09:45:52;;;;;;;20.30;6.38;;;23.20;56.10;;;;;;6147432;22;91583;-59
2024/02/17 09:48:20;;;;;;;15.65;5.45;;;23.20;55.40;;;;;;6147858;22;92774;-60
2024/02/17 09:50:49;;;;;;;21.58;7.07;;;23.20;55.50;;;;;;6142860;22;92414;-60
2024/02/17 09:53:15;;;;;;;;;;;23.20;55.60;;;;;;6148778;22;93562;-59
2024/02/17 09:55:46;;;;;;;16.42;5.63;;;23.20;55.70;;;;;;6151769;22;92560;-60
2024/02/17 09:58:12;;;;;;;15.63;5.03;;;23.20;55.10;;;;;;6146894;22;93256;-59
2024/02/17 10:00:37;;;;;;;15.10;5.05;;;23.20;54.80;;;;;;6146847;22;92816;-60
2024/02/17 10:03:05;;;;;;;15.68;4.25;;;23.30;55.00;;;;;;6145865;22;92310;-60
2024/02/17 10:05:31;;;;;;;14.98;5.15;;;23.30;55.30;;;;;;6145574;22;91973;-60
2024/02/17 10:07:57;;;;;;;16.70;5.55;;;23.30;55.60;;;;;;6146600;22;93947;-60
2024/02/17 10:10:23;;;;;;;20.42;5.03;;;23.30;55.80;;;;;;6116170;22;97776;-61
2024/02/17 10:12:54;;;;;;;14.82;5.38;;;23.30;55.90;;;;;;6110883;22;92519;-59
2024/02/17 10:15:22;;;;;;;17.40;5.65;;;23.30;55.90;;;;;;6146472;22;92277;-60
2024/02/17 10:17:48;;;;;;;12.95;4.95;;;23.30;56.10;;;;;;6145605;22;94137;-59
2024/02/17 10:20:15;;;;;;;14.60;4.65;;;23.30;56.20;;;;;;6145697;22;92927;-59
2024/02/17 10:22:43;;;;;;;15.07;6.15;;;23.40;57.10;;;;;;6148320;22;92321;-60
2024/02/17 10:25:10;;;;;;;13.40;5.70;;;23.30;56.40;;;;;;6139978;22;92467;-60
2024/02/17 10:27:38;;;;;;;17.58;5.18;;;23.40;56.50;;;;;;6146691;22;93267;-59
2024/02/17 10:30:17;;;;;;;16.55;5.28;;;23.40;56.70;;;;;;6146064;22;93519;-60
2024/02/17 10:32:44;;;;;;;;;;;23.40;56.80;;;;;;6148922;22;91816;-59
2024/02/17 10:35:11;;;;;;;16.65;5.53;;;23.40;56.60;;;;;;6119908;22;91974;-60
2024/02/17 10:37:38;;;;;;;14.40;5.35;;;23.40;56.60;;;;;;6148464;22;92476;-60
2024/02/17 10:40:07;;;;;;;17.67;5.45;;;23.40;56.80;;;;;;6147377;22;93184;-60
2024/02/17 10:42:34;;;;;;;15.80;4.75;;;23.40;56.80;;;;;;6147758;22;92975;-60
2024/02/17 10:45:01;;;;;;;14.48;4.20;;;23.50;56.20;;;;;;6120996;22;92425;-60
2024/02/17 10:47:33;;;;;;;12.32;4.03;;;23.50;55.10;;;;;;6119683;22;94186;-60
2024/02/17 10:50:19;;;;;;;11.55;3.70;;;23.50;54.30;;;;;;6141419;22;93390;-60
2024/02/17 10:52:49;;;;;;;12.13;4.07;;;23.50;54.50;;;;;;6149726;22;92530;-60
2024/02/17 10:55:18;;;;;;;18.23;9.95;;;23.50;54.60;;;;;;6146677;22;91827;-60
2024/02/17 10:57:55;;;;;;;23.50;13.17;;;23.50;54.60;;;;;;6146218;22;93353;-60
2024/02/17 11:00:22;;;;;;;37.63;19.60;;;23.50;54.60;;;;;;6120829;22;94245;-58
2024/02/17 11:02:50;;;;;;;37.65;20.55;;;23.50;55.80;;;;;;6122974;22;92175;-58
2024/02/17 11:05:18;;;;;;;40.95;21.05;;;23.50;56.60;;;;;;6147624;22;92252;-58
2024/02/17 11:07:45;;;;;;;37.88;20.67;;;23.50;56.90;;;;;;6147718;22;94210;-59
2024/02/17 11:10:13;;;;;;;37.35;19.85;;;23.60;57.20;;;;;;6120611;22;92885;-59
2024/02/17 11:12:39;;;;;;;37.35;20.95;;;23.60;57.40;;;;;;6120065;22;91905;-59
2024/02/17 11:15:09;;;;;;;33.75;20.83;;;23.60;57.90;;;;;;6146020;22;92179;-59
2024/02/17 11:17:51;;;;;;;37.00;21.10;;;23.60;58.60;;;;;;6144056;22;93414;-59
2024/02/17 11:20:18;;;;;;;40.50;20.27;;;23.60;58.40;;;;;;6145000;22;92974;-59
2024/02/17 11:22:52;;;;;;;35.33;21.05;;;23.50;58.70;;;;;;6146311;22;92027;-59
2024/02/17 11:25:38;;;;;;;33.30;20.52;;;23.60;59.00;;;;;;6145948;22;91439;-58
2024/02/17 11:28:18;;;;;;;33.70;19.13;;;23.60;59.20;;;;;;6146197;22;93076;-58
2024/02/17 11:30:55;;;;;;;33.53;18.55;;;23.60;59.10;;;;;;6143654;22;93324;-68
2024/02/17 11:33:29;;;;;;;37.58;18.65;;;23.60;59.40;;;;;;6116799;22;93659;-59
2024/02/17 11:35:56;;;;;;;33.60;19.52;;;23.60;59.50;;;;;;6116703;22;92438;-62
2024/02/17 11:38:26;;;;;;;30.02;18.02;;;23.60;59.50;;;;;;6143754;22;92972;-62
2024/02/17 11:40:54;;;;;;;31.25;17.38;;;23.60;59.60;;;;;;6118862;22;93232;-67
2024/02/17 11:43:21;;;;;;;34.28;18.42;;;23.60;59.90;;;;;;6119318;22;92254;-67
2024/02/17 11:45:47;;;;;;;34.03;18.02;;;23.60;59.80;;;;;;6118586;22;91938;-65
2024/02/17 11:48:15;;;;;;;28.25;15.90;;;23.60;59.70;;;;;;6118341;22;93672;-64
2024/02/17 11:50:41;;;;;;;28.85;17.75;;;23.60;59.50;;;;;;6145477;22;92764;-65
2024/02/17 11:53:08;;;;;;;32.83;15.98;;;23.50;59.20;;;;;;6117352;22;92175;-58
2024/02/17 11:55:36;;;;;;;30.85;16.27;;;23.50;59.30;;;;;;6118660;22;92964;-68
2024/02/17 11:58:09;;;;;;;25.17;15.02;;;23.50;59.30;;;;;;6142129;22;93500;-63
2024/02/17 12:00:38;;;;;;;31.95;16.08;;;23.50;59.50;;;;;;6144280;22;93795;-57
2024/02/17 12:03:05;;;;;;;30.25;16.58;;;23.40;59.60;;;;;;6144829;22;92434;-59
2024/02/17 12:05:31;;;;;;;33.92;14.63;;;23.40;59.90;;;;;;6140249;22;92399;-57
2024/02/17 12:07:57;;;;;;;30.58;14.90;;;23.40;59.30;;;;;;6118985;22;93835;-57
2024/02/17 12:10:26;;;;;;;31.23;16.42;;;23.40;59.60;;;;;;6115859;22;96868;-54
2024/02/17 12:12:52;;;;;;;27.92;14.10;;;23.40;59.80;;;;;;6145896;22;92871;-54
2024/02/17 12:15:18;;;;;;;24.40;14.70;;;23.30;59.70;;;;;;6121208;22;91342;-55
2024/02/17 12:17:44;;;;;;;31.10;15.98;;;23.40;59.30;;;;;;6146737;22;92907;-57
2024/02/17 12:20:17;;;;;;;30.38;14.82;;;23.30;59.60;;;;;;6146292;22;92929;-55
2024/02/17 12:22:52;;;;;;;29.40;15.52;;;23.30;59.50;;;;;;6121310;22;93711;-58
2024/02/17 12:25:19;;;;;;;29.35;15.10;;;23.20;60.20;;;;;;6148493;22;92667;-55
2024/02/17 12:27:48;;;;;;;32.05;14.65;;;23.20;59.40;;;;;;6147476;22;92747;-58
2024/02/17 12:30:14;;;;;;;30.55;14.63;;;23.20;59.50;;;;;;6120091;22;94804;-53
2024/02/17 12:32:41;;;;;;;25.58;14.23;;;23.20;59.50;;;;;;6147845;22;92381;-57
2024/02/17 12:35:18;;;;;;;28.88;15.70;;;23.20;59.50;;;;;;6148847;22;91812;-56
2024/02/17 12:37:48;;;;;;;23.83;13.35;;;23.20;59.50;;;;;;6149727;22;93537;-57
2024/02/17 12:40:21;;;;;;;30.40;13.88;;;23.10;59.40;;;;;;6143893;22;92782;-57
2024/02/17 12:42:51;;;;;;;24.55;13.95;;;23.10;59.40;;;;;;6147539;22;92460;-54
2024/02/17 12:45:33;;;;;;;26.20;14.43;;;23.10;59.50;;;;;;6149678;22;92003;-57